Clayton, Idaho
Current Conditions -  °F | °C
As of 10:55 AM on Saturday 20 Dec 2014 (Local Time) from KLLJ Reporting Station
Scattered Clouds Scattered Clouds  
Wind Chill: 28°   Ceiling: Unl
Heat Index: 28°   Visibility: 10mi
Dew Point: 25°   Wind: 3mph
Humidity: 88%   Direction: 350°N
Pressure: 29.98"   Gusts: NA
Location:  44.26°N, 114.4°W
Report Text: KLLJ 201755Z AUTO 35003KT 10SM SCT100 M02/M04 A2998 RMK AO2 SLP181 T10221039 11022 21061 51001
Loading
Personal Weather Stations






























Interactive Weather Map New forecast layout! Learn more

10-Day Weather Forecast

Advertisements
Track Severe Weather on mobile